createdAt,value
2023-03-26T00:01:40.469Z,4.33
2023-03-26T00:04:07.693Z,4.31
2023-03-26T00:06:39.400Z,4.31
2023-03-26T00:09:09.038Z,4.27
2023-03-26T00:11:36.028Z,4.24
2023-03-26T00:14:03.824Z,4.20
2023-03-26T00:16:32.176Z,4.15
2023-03-26T00:19:00.077Z,4.12
2023-03-26T00:21:29.030Z,4.08
2023-03-26T00:23:59.795Z,4.05
2023-03-26T00:26:31.286Z,4.05
2023-03-26T00:28:58.541Z,4.05
2023-03-26T00:31:25.507Z,4.06
2023-03-26T00:33:56.153Z,4.07
2023-03-26T00:36:25.807Z,4.07
2023-03-26T00:38:54.080Z,4.03
2023-03-26T00:41:25.326Z,4.01
2023-03-26T00:43:56.480Z,4.01
2023-03-26T00:46:24.965Z,4.02
2023-03-26T00:48:51.946Z,4.04
2023-03-26T00:51:20.826Z,4.06
2023-03-26T00:53:49.529Z,4.07
2023-03-26T00:56:17.280Z,4.02
2023-03-26T00:58:44.561Z,3.97
2023-03-26T01:01:18.698Z,3.96
2023-03-26T01:03:57.124Z,3.93
2023-03-26T01:06:33.081Z,3.91
2023-03-26T01:09:07.110Z,3.96
2023-03-26T01:11:35.803Z,3.95
2023-03-26T01:14:07.452Z,3.92
2023-03-26T01:16:37.301Z,3.89
2023-03-26T01:19:16.692Z,3.89
2023-03-26T01:21:43.388Z,3.85
2023-03-26T01:24:10.557Z,3.85
2023-03-26T01:27:14.610Z,3.85
2023-03-26T01:29:44.781Z,3.80
2023-03-26T01:32:45.794Z,3.78
2023-03-26T01:35:36.530Z,3.76
2023-03-26T01:38:25.975Z,3.73
2023-03-26T01:41:06.966Z,3.68
2023-03-26T01:43:42.216Z,3.63
2023-03-26T01:46:12.993Z,3.67
2023-03-26T01:48:42.916Z,3.66
2023-03-26T01:51:11.623Z,3.65
2023-03-26T01:53:43.897Z,3.64
2023-03-26T01:56:40.752Z,3.59
2023-03-26T01:59:41.938Z,3.56
2023-03-26T02:02:30.896Z,3.53
2023-03-26T02:05:09.666Z,3.51
2023-03-26T02:07:44.803Z,3.51
2023-03-26T02:10:17.432Z,3.56
2023-03-26T02:12:44.746Z,3.58
2023-03-26T02:15:12.671Z,3.59
2023-03-26T02:17:40.542Z,3.62
2023-03-26T02:20:14.441Z,3.62
2023-03-26T02:22:46.217Z,3.65
2023-03-26T02:25:18.892Z,3.67
2023-03-26T02:27:46.862Z,3.66
2023-03-26T02:30:17.454Z,3.64
2023-03-26T02:32:44.347Z,3.63
2023-03-26T02:35:12.957Z,3.67
2023-03-26T02:37:40.552Z,3.68
2023-03-26T02:40:11.405Z,3.69
2023-03-26T02:42:39.750Z,3.67
2023-03-26T02:45:07.120Z,3.68
2023-03-26T02:47:33.970Z,3.72
2023-03-26T02:50:01.555Z,3.72
2023-03-26T02:52:29.789Z,3.73
2023-03-26T02:54:56.922Z,3.70
2023-03-26T02:57:25.049Z,3.68
2023-03-26T02:59:52.948Z,3.67
2023-03-26T03:02:20.272Z,3.68
2023-03-26T03:04:47.009Z,3.67
2023-03-26T03:07:15.097Z,3.69
2023-03-26T03:09:42.063Z,3.71
2023-03-26T03:12:08.847Z,3.73
2023-03-26T03:14:35.800Z,3.75
2023-03-26T03:17:02.675Z,3.78
2023-03-26T03:19:29.561Z,3.78
2023-03-26T03:21:56.369Z,3.74
2023-03-26T03:24:23.574Z,3.74
2023-03-26T03:26:50.594Z,3.75
2023-03-26T03:29:17.528Z,3.75
2023-03-26T03:31:44.332Z,3.79
2023-03-26T03:34:11.098Z,3.84
2023-03-26T03:36:38.738Z,3.88
2023-03-26T03:39:05.521Z,3.87
2023-03-26T03:41:32.412Z,3.89
2023-03-26T03:44:01.600Z,3.89
2023-03-26T03:46:28.611Z,3.87
2023-03-26T03:48:56.194Z,3.86
2023-03-26T03:51:23.175Z,3.85
2023-03-26T03:53:50.458Z,3.87
2023-03-26T03:56:19.323Z,3.91
2023-03-26T03:58:46.430Z,3.91
2023-03-26T04:01:13.613Z,3.89
2023-03-26T04:03:40.742Z,3.92
2023-03-26T04:06:07.885Z,3.96
2023-03-26T04:08:34.924Z,3.97
2023-03-26T04:11:01.887Z,3.99
2023-03-26T04:13:28.851Z,3.98
2023-03-26T04:15:56.576Z,3.98
2023-03-26T04:18:23.681Z,3.98
2023-03-26T04:20:50.886Z,3.99
2023-03-26T04:23:18.968Z,4.01
2023-03-26T04:25:50.265Z,3.99
2023-03-26T04:28:48.837Z,4.01
2023-03-26T04:31:24.633Z,4.02
2023-03-26T04:34:00.226Z,4.04
2023-03-26T04:36:30.060Z,4.06
2023-03-26T04:38:58.568Z,4.07
2023-03-26T04:41:26.524Z,4.06
2023-03-26T04:43:54.281Z,4.08
2023-03-26T04:46:22.009Z,4.09
2023-03-26T04:48:52.851Z,4.14
2023-03-26T04:51:24.363Z,4.17
2023-03-26T04:53:54.300Z,4.18
2023-03-26T04:56:51.486Z,4.21
2023-03-26T04:59:30.282Z,4.27
2023-03-26T05:01:58.158Z,4.38
2023-03-26T05:04:24.984Z,4.47
2023-03-26T05:06:51.903Z,4.52
2023-03-26T05:09:19.744Z,4.56
2023-03-26T05:11:46.519Z,4.56
2023-03-26T05:14:13.264Z,4.60
2023-03-26T05:16:41.619Z,4.60
2023-03-26T05:19:09.038Z,4.58
2023-03-26T05:21:36.429Z,4.55
2023-03-26T05:24:03.592Z,4.51
2023-03-26T05:26:30.401Z,4.51
2023-03-26T05:28:57.164Z,4.53
2023-03-26T05:31:24.035Z,4.51
2023-03-26T05:33:50.794Z,4.51
2023-03-26T05:36:17.645Z,4.53
2023-03-26T05:38:47.801Z,4.56
2023-03-26T05:41:14.556Z,4.59
2023-03-26T05:43:41.439Z,4.59
2023-03-26T05:46:08.368Z,4.65
2023-03-26T05:48:35.196Z,4.67
2023-03-26T05:51:01.915Z,4.70
2023-03-26T05:53:28.748Z,4.72
2023-03-26T05:55:58.735Z,4.71
2023-03-26T05:58:27.490Z,4.71
2023-03-26T06:01:02.746Z,4.72
2023-03-26T06:03:29.750Z,4.75
2023-03-26T06:05:56.803Z,4.78
2023-03-26T06:08:23.606Z,4.73
2023-03-26T06:10:53.728Z,4.77
2023-03-26T06:13:20.654Z,4.77
2023-03-26T06:15:47.458Z,4.79
2023-03-26T06:18:14.318Z,4.83
2023-03-26T06:20:42.118Z,4.81
2023-03-26T06:23:09.145Z,4.84
2023-03-26T06:25:37.201Z,4.85
2023-03-26T06:28:04.363Z,4.81
2023-03-26T06:30:31.145Z,4.80
2023-03-26T06:32:57.904Z,4.80
2023-03-26T06:35:24.860Z,4.80
2023-03-26T06:37:51.655Z,4.80
2023-03-26T06:40:18.473Z,4.81
2023-03-26T06:43:08.989Z,4.83
2023-03-26T06:45:33.319Z,4.81
2023-03-26T06:48:00.447Z,4.80
2023-03-26T06:50:28.027Z,4.78
2023-03-26T06:52:56.018Z,4.78
2023-03-26T06:55:23.424Z,4.82
2023-03-26T06:57:52.551Z,4.87
2023-03-26T07:00:20.556Z,4.92
2023-03-26T07:02:47.906Z,4.94
2023-03-26T07:05:15.673Z,4.97
2023-03-26T07:07:46.536Z,5.01
2023-03-26T07:10:14.978Z,5.03
2023-03-26T07:12:42.571Z,5.09
2023-03-26T07:15:10.533Z,5.15
2023-03-26T07:17:37.795Z,5.15
2023-03-26T07:20:08.568Z,5.20
2023-03-26T07:22:36.980Z,5.18
2023-03-26T07:25:04.506Z,5.22
2023-03-26T07:27:44.406Z,5.27
2023-03-26T07:30:17.265Z,5.30
2023-03-26T07:32:58.988Z,5.32
2023-03-26T07:35:48.726Z,5.34
2023-03-26T07:38:33.213Z,5.38
2023-03-26T07:41:13.389Z,5.37
2023-03-26T07:43:53.904Z,5.38
2023-03-26T07:46:28.751Z,5.38
2023-03-26T07:48:58.497Z,5.38
2023-03-26T07:51:25.995Z,5.38
2023-03-26T07:53:53.014Z,5.40
2023-03-26T07:56:26.161Z,5.42
2023-03-26T07:59:14.579Z,5.44
2023-03-26T08:01:44.249Z,5.42
2023-03-26T08:04:32.327Z,5.44
2023-03-26T08:07:26.808Z,5.44
2023-03-26T08:10:05.780Z,5.45
2023-03-26T08:12:54.224Z,5.46
2023-03-26T08:15:29.753Z,5.44
2023-03-26T08:18:19.513Z,5.44
2023-03-26T08:20:50.261Z,5.44
2023-03-26T08:23:36.362Z,5.45
2023-03-26T08:26:44.393Z,5.42
2023-03-26T08:29:27.486Z,5.40
2023-03-26T08:31:55.668Z,5.40
2023-03-26T08:34:22.451Z,5.41
2023-03-26T08:36:49.190Z,5.43
2023-03-26T08:39:15.934Z,5.44
2023-03-26T08:42:07.314Z,5.44
2023-03-26T08:44:54.897Z,5.44
2023-03-26T08:47:55.725Z,5.42
2023-03-26T08:51:07.847Z,5.38
2023-03-26T08:53:50.048Z,5.39
2023-03-26T08:56:35.086Z,5.43
2023-03-26T08:59:27.695Z,5.40
2023-03-26T09:01:54.458Z,5.34
2023-03-26T09:04:30.429Z,5.32
2023-03-26T09:07:00.113Z,5.32
2023-03-26T09:10:09.270Z,5.29
2023-03-26T09:13:12.997Z,5.28
2023-03-26T09:16:22.845Z,5.27
2023-03-26T09:19:24.901Z,5.27
2023-03-26T09:22:27.614Z,5.26
2023-03-26T09:25:14.045Z,5.33
2023-03-26T09:28:00.202Z,5.42
2023-03-26T09:30:45.219Z,5.50
2023-03-26T09:33:17.619Z,5.53
2023-03-26T09:36:04.693Z,5.51
2023-03-26T09:38:44.236Z,5.55
2023-03-26T09:41:15.996Z,5.61
2023-03-26T09:44:02.725Z,5.64
2023-03-26T09:46:55.062Z,5.69
2023-03-26T09:49:40.827Z,5.66
2023-03-26T09:52:27.383Z,5.65
2023-03-26T09:55:00.429Z,5.60
2023-03-26T09:58:04.792Z,5.61
2023-03-26T10:00:54.207Z,5.62
2023-03-26T10:03:28.357Z,5.62
2023-03-26T10:06:25.471Z,5.63
2023-03-26T10:08:58.190Z,5.64
2023-03-26T10:14:40.934Z,5.77
2023-03-26T10:17:49.263Z,5.77
2023-03-26T10:20:46.928Z,5.78
2023-03-26T10:23:58.861Z,5.79
2023-03-26T10:27:10.279Z,5.78
2023-03-26T10:29:55.759Z,5.66
2023-03-26T10:32:44.357Z,5.65
2023-03-26T10:35:45.110Z,5.62
2023-03-26T10:38:18.152Z,5.66
2023-03-26T10:41:04.803Z,5.68
2023-03-26T10:43:58.097Z,5.68
2023-03-26T10:49:52.333Z,5.64
2023-03-26T10:52:26.752Z,5.62
2023-03-26T10:55:14.487Z,5.63
2023-03-26T10:57:52.851Z,5.61
2023-03-26T11:00:27.420Z,5.59
2023-03-26T11:03:15.512Z,5.58
2023-03-26T11:05:59.221Z,5.59
2023-03-26T11:08:35.540Z,5.58
2023-03-26T11:11:18.207Z,5.59
2023-03-26T11:13:47.955Z,5.53
2023-03-26T11:16:23.810Z,5.52
2023-03-26T11:19:02.770Z,5.56
2023-03-26T11:21:44.320Z,5.52
2023-03-26T11:24:32.484Z,5.53
2023-03-26T11:27:15.722Z,5.50
2023-03-26T11:29:52.089Z,5.47
2023-03-26T11:32:26.802Z,5.45
2023-03-26T11:35:08.556Z,5.47
2023-03-26T11:38:08.102Z,5.49
2023-03-26T11:40:41.738Z,5.44
2023-03-26T11:43:12.226Z,5.38
2023-03-26T11:45:44.371Z,5.39
2023-03-26T11:48:23.073Z,5.42
2023-03-26T11:50:55.837Z,5.42
2023-03-26T11:53:27.886Z,5.38
2023-03-26T11:56:11.064Z,5.35
2023-03-26T11:58:45.786Z,5.38
2023-03-26T12:01:19.282Z,5.43
2023-03-26T12:03:58.786Z,5.48
2023-03-26T12:06:27.587Z,5.50
2023-03-26T12:08:54.814Z,5.53
2023-03-26T12:11:28.202Z,5.53
2023-03-26T12:14:00.735Z,5.49
2023-03-26T12:16:28.126Z,5.41
2023-03-26T12:18:59.423Z,5.40
2023-03-26T12:21:27.150Z,5.36
2023-03-26T12:23:57.846Z,5.39
2023-03-26T12:26:34.110Z,5.44
2023-03-26T12:29:11.188Z,5.46
2023-03-26T12:32:14.186Z,5.46
2023-03-26T12:34:41.761Z,5.41
2023-03-26T12:37:39.004Z,5.46
2023-03-26T12:40:32.606Z,5.52
2023-03-26T12:44:47.436Z,5.50
2023-03-26T12:47:54.416Z,5.54
2023-03-26T12:48:41.245Z,5.53
2023-03-26T12:51:29.340Z,5.60
2023-03-26T12:54:16.655Z,5.63
2023-03-26T12:56:48.059Z,5.62
2023-03-26T12:59:26.385Z,5.66
2023-03-26T13:02:19.281Z,5.69
2023-03-26T13:05:02.315Z,5.71
2023-03-26T13:08:13.957Z,5.66
2023-03-26T13:10:49.760Z,5.67
2023-03-26T13:13:22.546Z,5.79
2023-03-26T13:15:54.437Z,5.81
2023-03-26T13:18:23.940Z,5.77
2023-03-26T13:20:50.631Z,5.76
2023-03-26T13:23:26.805Z,5.83
2023-03-26T13:26:06.397Z,5.90
2023-03-26T13:28:58.894Z,5.93
2023-03-26T13:32:13.913Z,5.99
2023-03-26T13:34:53.861Z,5.93
2023-03-26T13:37:37.960Z,5.83
2023-03-26T13:40:10.509Z,5.81
2023-03-26T13:42:52.373Z,5.86
2023-03-26T13:45:40.421Z,5.82
2023-03-26T13:48:20.920Z,5.86
2023-03-26T13:50:59.589Z,5.85
2023-03-26T13:53:33.124Z,5.99
2023-03-26T13:56:00.561Z,6.07
2023-03-26T13:58:43.985Z,6.13
2023-03-26T14:01:33.872Z,6.18
2023-03-26T14:07:44.935Z,6.32
2023-03-26T14:10:23.720Z,6.33
2023-03-26T14:12:59.396Z,6.32
2023-03-26T14:15:46.892Z,6.39
2023-03-26T14:18:45.971Z,6.41
2023-03-26T14:21:24.549Z,6.41
2023-03-26T14:23:51.240Z,6.43
2023-03-26T14:26:42.304Z,6.45
2023-03-26T14:29:29.019Z,6.45
2023-03-26T14:32:24.535Z,6.44
2023-03-26T14:35:17.332Z,6.49
2023-03-26T14:37:49.991Z,6.43
2023-03-26T14:40:31.932Z,6.42
2023-03-26T14:43:17.420Z,6.44
2023-03-26T14:45:58.794Z,6.52
2023-03-26T14:48:43.943Z,6.49
2023-03-26T14:51:47.719Z,6.48
2023-03-26T14:54:19.290Z,6.53
2023-03-26T14:57:06.236Z,6.53
2023-03-26T15:00:07.362Z,6.50
2023-03-26T15:02:54.459Z,6.50
2023-03-26T15:05:36.449Z,6.49
2023-03-26T15:08:39.228Z,6.50
2023-03-26T15:11:27.996Z,6.47
2023-03-26T15:14:20.549Z,6.50
2023-03-26T15:17:12.796Z,6.43
2023-03-26T15:23:12.419Z,6.30
2023-03-26T15:26:09.919Z,6.26
2023-03-26T15:28:42.885Z,6.25
2023-03-26T15:31:20.773Z,6.23
2023-03-26T15:34:00.865Z,6.12
2023-03-26T15:36:56.647Z,6.08
2023-03-26T15:39:59.112Z,6.16
2023-03-26T15:42:50.826Z,6.13
2023-03-26T15:45:43.642Z,6.16
2023-03-26T15:48:13.571Z,6.18
2023-03-26T15:50:43.665Z,6.21
2023-03-26T15:53:39.706Z,6.21
2023-03-26T15:56:25.195Z,6.23
2023-03-26T15:58:52.025Z,6.21
2023-03-26T16:01:45.730Z,6.22
2023-03-26T16:04:50.564Z,6.26
2023-03-26T16:07:24.929Z,6.20
2023-03-26T16:10:09.989Z,6.21
2023-03-26T16:13:06.165Z,6.20
2023-03-26T16:15:33.470Z,6.20
2023-03-26T16:18:15.678Z,6.24
2023-03-26T16:21:31.328Z,6.22
2023-03-26T16:24:08.908Z,6.21
2023-03-26T16:29:28.805Z,6.17
2023-03-26T16:32:15.873Z,6.12
2023-03-26T16:34:50.049Z,6.17
2023-03-26T16:37:38.003Z,6.17
2023-03-26T16:40:17.460Z,6.07
2023-03-26T16:43:06.745Z,6.13
2023-03-26T16:46:02.513Z,6.10
2023-03-26T16:48:38.160Z,6.08
2023-03-26T16:51:21.071Z,6.03
2023-03-26T16:54:19.895Z,6.04
2023-03-26T16:56:52.442Z,5.96
2023-03-26T17:00:06.783Z,5.93
2023-03-26T17:02:43.498Z,5.90
2023-03-26T17:05:19.713Z,5.90
2023-03-26T17:08:06.476Z,5.85
2023-03-26T17:10:38.702Z,5.88
2023-03-26T17:13:16.054Z,5.91
2023-03-26T17:15:57.945Z,5.91
2023-03-26T17:18:49.738Z,5.95
2023-03-26T17:21:19.380Z,5.97
2023-03-26T17:24:20.269Z,5.97
2023-03-26T17:27:09.971Z,5.96
2023-03-26T17:30:15.652Z,5.88
2023-03-26T17:33:08.252Z,5.83
2023-03-26T17:35:44.557Z,5.81
2023-03-26T17:38:17.317Z,5.84
2023-03-26T17:40:55.195Z,5.83
2023-03-26T17:43:45.005Z,5.79
2023-03-26T17:46:51.999Z,5.75
2023-03-26T17:49:32.724Z,5.82
2023-03-26T17:52:02.437Z,5.77
2023-03-26T17:54:41.307Z,5.74
2023-03-26T17:57:30.949Z,5.69
2023-03-26T17:59:59.856Z,5.73
2023-03-26T18:02:43.631Z,5.76
2023-03-26T18:05:14.633Z,5.81
2023-03-26T18:07:53.564Z,5.77
2023-03-26T18:10:40.942Z,5.72
2023-03-26T18:13:24.134Z,5.72
2023-03-26T18:16:12.861Z,5.74
2023-03-26T18:18:51.788Z,5.73
2023-03-26T18:21:27.899Z,5.68
2023-03-26T18:23:59.403Z,5.67
2023-03-26T18:26:50.861Z,5.78
2023-03-26T18:29:30.010Z,5.80
2023-03-26T18:32:00.687Z,5.85
2023-03-26T18:34:33.056Z,5.92
2023-03-26T18:37:20.150Z,5.98
2023-03-26T18:40:11.690Z,5.94
2023-03-26T18:42:42.035Z,5.92
2023-03-26T18:45:38.073Z,5.90
2023-03-26T18:48:17.869Z,5.86
2023-03-26T18:50:46.289Z,5.83
2023-03-26T18:53:22.469Z,5.90
2023-03-26T18:55:53.504Z,5.97
2023-03-26T18:58:25.429Z,6.00
2023-03-26T19:00:56.533Z,5.95
2023-03-26T19:03:26.838Z,5.91
2023-03-26T19:05:56.461Z,5.90
2023-03-26T19:08:25.199Z,5.86
2023-03-26T19:10:54.510Z,5.83
2023-03-26T19:13:22.278Z,5.87
2023-03-26T19:15:52.198Z,5.86
2023-03-26T19:18:28.455Z,5.84
2023-03-26T19:21:00.349Z,5.91
2023-03-26T19:23:38.025Z,5.97
2023-03-26T19:26:10.866Z,5.99
2023-03-26T19:28:49.097Z,6.00
2023-03-26T19:31:16.283Z,5.92
2023-03-26T19:33:44.270Z,5.85
2023-03-26T19:36:14.600Z,5.80
2023-03-26T19:38:50.998Z,5.82
2023-03-26T19:41:23.384Z,5.80
2023-03-26T19:43:52.914Z,5.68
2023-03-26T19:46:23.758Z,5.65
2023-03-26T19:48:53.386Z,5.65
2023-03-26T19:51:35.834Z,5.61
2023-03-26T19:54:16.118Z,5.58
2023-03-26T19:56:43.628Z,5.56
2023-03-26T19:59:10.432Z,5.58
2023-03-26T20:01:37.678Z,5.59
2023-03-26T20:04:06.940Z,5.61
2023-03-26T20:06:42.686Z,5.63
2023-03-26T20:09:14.173Z,5.69
2023-03-26T20:11:41.590Z,5.64
2023-03-26T20:14:14.815Z,5.64
2023-03-26T20:16:44.296Z,5.55
2023-03-26T20:19:13.195Z,5.52
2023-03-26T20:21:41.164Z,5.51
2023-03-26T20:24:21.748Z,5.50
2023-03-26T20:26:48.475Z,5.51
2023-03-26T20:29:15.979Z,5.55
2023-03-26T20:31:43.390Z,5.53
2023-03-26T20:34:19.884Z,5.51
2023-03-26T20:36:47.417Z,5.48
2023-03-26T20:39:14.374Z,5.43
2023-03-26T20:41:45.588Z,5.44
2023-03-26T20:44:15.811Z,5.44
2023-03-26T20:46:44.288Z,5.50
2023-03-26T20:49:12.050Z,5.53
2023-03-26T20:51:41.987Z,5.59
2023-03-26T20:54:25.319Z,5.59
2023-03-26T20:56:53.621Z,5.55
2023-03-26T20:59:26.628Z,5.51
2023-03-26T21:01:56.634Z,5.55
2023-03-26T21:04:26.399Z,5.55
2023-03-26T21:06:57.588Z,5.57
2023-03-26T21:09:34.224Z,5.60
2023-03-26T21:12:16.878Z,5.59
2023-03-26T21:14:44.404Z,5.52
2023-03-26T21:17:22.315Z,5.52
2023-03-26T21:19:49.645Z,5.50
2023-03-26T21:22:28.742Z,5.46
2023-03-26T21:25:06.058Z,5.44
2023-03-26T21:27:55.576Z,5.36
2023-03-26T21:30:22.509Z,5.32
2023-03-26T21:32:49.677Z,5.32
2023-03-26T21:35:17.053Z,5.34
2023-03-26T21:37:47.015Z,5.35
2023-03-26T21:40:16.691Z,5.31
2023-03-26T21:42:46.815Z,5.26
2023-03-26T21:45:14.189Z,5.21
2023-03-26T21:47:41.731Z,5.18
2023-03-26T21:50:09.957Z,5.18
2023-03-26T21:52:37.365Z,5.16
2023-03-26T21:55:06.648Z,5.13
2023-03-26T21:57:44.193Z,5.12
2023-03-26T22:00:18.430Z,5.09
2023-03-26T22:03:10.946Z,5.03
2023-03-26T22:05:49.375Z,5.02
2023-03-26T22:08:30.615Z,4.99
2023-03-26T22:10:57.915Z,4.95
2023-03-26T22:13:25.565Z,4.91
2023-03-26T22:15:52.298Z,4.93
2023-03-26T22:18:21.741Z,4.92
2023-03-26T22:20:49.084Z,4.92
2023-03-26T22:23:16.820Z,4.93
2023-03-26T22:25:44.010Z,4.90
2023-03-26T22:28:10.836Z,4.89
2023-03-26T22:30:38.831Z,4.89
2023-03-26T22:33:06.023Z,4.88
2023-03-26T22:35:32.762Z,4.89
2023-03-26T22:38:01.197Z,4.94
2023-03-26T22:40:28.470Z,4.90
2023-03-26T22:42:55.397Z,4.88
2023-03-26T22:45:23.037Z,4.81
2023-03-26T22:47:50.009Z,4.82
2023-03-26T22:50:16.865Z,4.82
2023-03-26T22:52:43.640Z,4.79
2023-03-26T22:55:11.682Z,4.78
2023-03-26T22:57:39.711Z,4.76
2023-03-26T23:00:20.051Z,4.74
2023-03-26T23:02:47.050Z,4.72
2023-03-26T23:05:14.896Z,4.68
2023-03-26T23:07:42.610Z,4.68
2023-03-26T23:10:11.253Z,4.66
2023-03-26T23:12:40.286Z,4.65
2023-03-26T23:15:08.146Z,4.62
2023-03-26T23:17:36.560Z,4.57
2023-03-26T23:20:25.497Z,4.59
2023-03-26T23:22:52.683Z,4.55
2023-03-26T23:25:20.119Z,4.52
2023-03-26T23:27:48.457Z,4.49
2023-03-26T23:30:16.766Z,4.52
2023-03-26T23:32:44.068Z,4.51
2023-03-26T23:35:11.305Z,4.49
2023-03-26T23:37:38.127Z,4.55
2023-03-26T23:40:10.362Z,4.59
2023-03-26T23:42:37.942Z,4.60
2023-03-26T23:45:05.938Z,4.63
2023-03-26T23:47:34.990Z,4.62
2023-03-26T23:50:02.871Z,4.62
2023-03-26T23:52:30.597Z,4.62
2023-03-26T23:54:59.880Z,4.59
2023-03-26T23:57:27.572Z,4.58
2023-03-26T23:59:55.613Z,4.56
